sensor_id;sensor_type;location;lat;lon;timestamp;pressure;altitude;pressure_sealevel;temperature;humidity
9059;BME280;4564;42.034;25.834;2023-02-23T00:00:13;100178.09;;;6.95;94.72
9059;BME280;4564;42.034;25.834;2023-02-23T00:02:46;100175.91;;;6.91;93.51
9059;BME280;4564;42.034;25.834;2023-02-23T00:05:13;100184.97;;;6.73;90.28
9059;BME280;4564;42.034;25.834;2023-02-23T00:07:40;100183.56;;;6.53;89.16
9059;BME280;4564;42.034;25.834;2023-02-23T00:10:08;100181.50;;;6.39;90.30
9059;BME280;4564;42.034;25.834;2023-02-23T00:12:36;100193.63;;;6.35;91.18
9059;BME280;4564;42.034;25.834;2023-02-23T00:15:03;100198.13;;;6.26;89.81
9059;BME280;4564;42.034;25.834;2023-02-23T00:17:31;100192.72;;;6.26;89.85
9059;BME280;4564;42.034;25.834;2023-02-23T00:19:57;100190.38;;;6.23;90.67
9059;BME280;4564;42.034;25.834;2023-02-23T00:22:25;100191.84;;;6.10;91.43
9059;BME280;4564;42.034;25.834;2023-02-23T00:24:51;100191.06;;;6.25;91.00
9059;BME280;4564;42.034;25.834;2023-02-23T00:27:18;100193.13;;;6.31;92.00
9059;BME280;4564;42.034;25.834;2023-02-23T00:29:45;100201.56;;;6.45;91.59
9059;BME280;4564;42.034;25.834;2023-02-23T00:32:13;100199.44;;;6.56;92.50
9059;BME280;4564;42.034;25.834;2023-02-23T00:34:45;100206.66;;;6.56;93.11
9059;BME280;4564;42.034;25.834;2023-02-23T00:37:13;100199.28;;;6.58;93.23
9059;BME280;4564;42.034;25.834;2023-02-23T00:39:40;100202.97;;;6.57;94.06
9059;BME280;4564;42.034;25.834;2023-02-23T00:42:07;100190.34;;;6.57;94.28
9059;BME280;4564;42.034;25.834;2023-02-23T00:44:34;100195.19;;;6.54;94.89
9059;BME280;4564;42.034;25.834;2023-02-23T00:47:05;100196.53;;;6.50;95.27
9059;BME280;4564;42.034;25.834;2023-02-23T00:49:31;100193.47;;;6.37;96.88
9059;BME280;4564;42.034;25.834;2023-02-23T00:51:59;100186.38;;;6.36;96.84
9059;BME280;4564;42.034;25.834;2023-02-23T00:54:26;100191.25;;;6.32;97.46
9059;BME280;4564;42.034;25.834;2023-02-23T00:56:53;100192.13;;;6.41;97.29
9059;BME280;4564;42.034;25.834;2023-02-23T00:59:19;100190.72;;;6.28;97.13
9059;BME280;4564;42.034;25.834;2023-02-23T01:01:46;100192.66;;;6.10;96.22
9059;BME280;4564;42.034;25.834;2023-02-23T01:04:13;100190.28;;;5.99;94.75
9059;BME280;4564;42.034;25.834;2023-02-23T01:06:41;100192.06;;;5.90;93.72
9059;BME280;4564;42.034;25.834;2023-02-23T01:09:09;100189.88;;;5.68;93.84
9059;BME280;4564;42.034;25.834;2023-02-23T01:11:38;100188.03;;;5.69;93.22
9059;BME280;4564;42.034;25.834;2023-02-23T01:14:05;100189.84;;;5.60;94.15
9059;BME280;4564;42.034;25.834;2023-02-23T01:16:33;100198.50;;;5.72;96.74
9059;BME280;4564;42.034;25.834;2023-02-23T01:19:00;100195.44;;;5.67;96.13
9059;BME280;4564;42.034;25.834;2023-02-23T01:21:28;100193.03;;;5.64;94.56
9059;BME280;4564;42.034;25.834;2023-02-23T01:23:55;100192.19;;;5.63;94.37
9059;BME280;4564;42.034;25.834;2023-02-23T01:26:24;100195.00;;;5.54;94.72
9059;BME280;4564;42.034;25.834;2023-02-23T01:28:52;100193.19;;;5.36;93.57
9059;BME280;4564;42.034;25.834;2023-02-23T01:31:21;100194.97;;;5.28;93.52
9059;BME280;4564;42.034;25.834;2023-02-23T01:33:51;100197.19;;;5.32;93.97
9059;BME280;4564;42.034;25.834;2023-02-23T01:36:18;100200.75;;;5.33;94.51
9059;BME280;4564;42.034;25.834;2023-02-23T01:38:45;100196.44;;;5.22;93.97
9059;BME280;4564;42.034;25.834;2023-02-23T01:41:13;100195.81;;;5.28;94.52
9059;BME280;4564;42.034;25.834;2023-02-23T01:43:54;100206.59;;;5.28;93.63
9059;BME280;4564;42.034;25.834;2023-02-23T01:46:21;100202.13;;;5.19;92.67
9059;BME280;4564;42.034;25.834;2023-02-23T01:48:48;100210.28;;;5.10;92.04
9059;BME280;4564;42.034;25.834;2023-02-23T01:51:15;100212.72;;;5.03;93.20
9059;BME280;4564;42.034;25.834;2023-02-23T01:53:45;100198.38;;;5.12;94.19
9059;BME280;4564;42.034;25.834;2023-02-23T01:56:14;100205.88;;;5.26;93.00
9059;BME280;4564;42.034;25.834;2023-02-23T01:58:44;100208.44;;;5.28;92.56
9059;BME280;4564;42.034;25.834;2023-02-23T02:01:13;100201.97;;;5.38;92.93
9059;BME280;4564;42.034;25.834;2023-02-23T02:03:41;100208.94;;;5.31;93.20
9059;BME280;4564;42.034;25.834;2023-02-23T02:06:11;100205.31;;;5.40;96.37
9059;BME280;4564;42.034;25.834;2023-02-23T02:08:39;100214.09;;;5.42;99.39
9059;BME280;4564;42.034;25.834;2023-02-23T02:11:09;100218.91;;;5.57;99.96
9059;BME280;4564;42.034;25.834;2023-02-23T02:13:50;100218.75;;;5.58;100.00
9059;BME280;4564;42.034;25.834;2023-02-23T02:16:31;100220.97;;;5.63;100.00
9059;BME280;4564;42.034;25.834;2023-02-23T02:19:24;100221.91;;;5.54;100.00
9059;BME280;4564;42.034;25.834;2023-02-23T02:24:51;100218.53;;;5.52;100.00
9059;BME280;4564;42.034;25.834;2023-02-23T02:27:26;100219.19;;;5.71;100.00
9059;BME280;4564;42.034;25.834;2023-02-23T02:30:02;100218.13;;;5.64;100.00
9059;BME280;4564;42.034;25.834;2023-02-23T02:32:47;100224.22;;;5.66;100.00
9059;BME280;4564;42.034;25.834;2023-02-23T02:38:12;100223.72;;;5.71;100.00
9059;BME280;4564;42.034;25.834;2023-02-23T02:40:44;100219.72;;;5.75;100.00
9059;BME280;4564;42.034;25.834;2023-02-23T02:43:20;100226.97;;;5.57;100.00
9059;BME280;4564;42.034;25.834;2023-02-23T02:45:50;100223.91;;;5.52;100.00
9059;BME280;4564;42.034;25.834;2023-02-23T02:48:22;100227.28;;;5.54;100.00
9059;BME280;4564;42.034;25.834;2023-02-23T02:50:56;100228.25;;;5.44;100.00
9059;BME280;4564;42.034;25.834;2023-02-23T02:53:27;100226.53;;;5.43;100.00
9059;BME280;4564;42.034;25.834;2023-02-23T02:55:56;100239.06;;;5.53;100.00
9059;BME280;4564;42.034;25.834;2023-02-23T02:58:25;100240.66;;;5.45;100.00
9059;BME280;4564;42.034;25.834;2023-02-23T03:00:51;100238.53;;;5.31;100.00
9059;BME280;4564;42.034;25.834;2023-02-23T03:03:36;100235.38;;;5.36;100.00
9059;BME280;4564;42.034;25.834;2023-02-23T03:06:21;100236.38;;;5.53;100.00
9059;BME280;4564;42.034;25.834;2023-02-23T03:09:11;100236.38;;;5.53;100.00
9059;BME280;4564;42.034;25.834;2023-02-23T03:12:05;100244.66;;;5.59;100.00
9059;BME280;4564;42.034;25.834;2023-02-23T03:14:51;100237.59;;;5.40;100.00
9059;BME280;4564;42.034;25.834;2023-02-23T03:17:41;100234.78;;;5.42;100.00
9059;BME280;4564;42.034;25.834;2023-02-23T03:20:27;100234.78;;;5.42;100.00
9059;BME280;4564;42.034;25.834;2023-02-23T03:23:15;100242.69;;;5.43;100.00
9059;BME280;4564;42.034;25.834;2023-02-23T03:26:03;100242.56;;;5.27;100.00
9059;BME280;4564;42.034;25.834;2023-02-23T03:28:51;100245.91;;;5.29;100.00
9059;BME280;4564;42.034;25.834;2023-02-23T03:31:40;100246.84;;;5.38;100.00
9059;BME280;4564;42.034;25.834;2023-02-23T03:34:30;100248.44;;;5.48;100.00
9059;BME280;4564;42.034;25.834;2023-02-23T03:37:17;100247.38;;;5.41;100.00
9059;BME280;4564;42.034;25.834;2023-02-23T03:40:05;100255.69;;;5.30;100.00
9059;BME280;4564;42.034;25.834;2023-02-23T03:42:52;100260.00;;;5.23;100.00
9059;BME280;4564;42.034;25.834;2023-02-23T03:45:38;100263.47;;;5.16;100.00
9059;BME280;4564;42.034;25.834;2023-02-23T03:48:23;100257.97;;;5.07;100.00
9059;BME280;4564;42.034;25.834;2023-02-23T03:51:09;100266.38;;;5.22;100.00
9059;BME280;4564;42.034;25.834;2023-02-23T03:53:56;100260.25;;;5.12;100.00
9059;BME280;4564;42.034;25.834;2023-02-23T03:56:44;100271.22;;;5.19;100.00
9059;BME280;4564;42.034;25.834;2023-02-23T03:59:31;100269.31;;;5.11;100.00
9059;BME280;4564;42.034;25.834;2023-02-23T04:02:17;100269.22;;;5.21;100.00
9059;BME280;4564;42.034;25.834;2023-02-23T04:05:03;100268.22;;;5.22;100.00
9059;BME280;4564;42.034;25.834;2023-02-23T04:07:49;100271.00;;;5.12;100.00
9059;BME280;4564;42.034;25.834;2023-02-23T04:10:34;100270.69;;;5.15;100.00
9059;BME280;4564;42.034;25.834;2023-02-23T04:13:23;100281.22;;;5.26;100.00
9059;BME280;4564;42.034;25.834;2023-02-23T04:15:54;100275.22;;;5.32;100.00
9059;BME280;4564;42.034;25.834;2023-02-23T04:18:22;100275.22;;;5.32;100.00
9059;BME280;4564;42.034;25.834;2023-02-23T04:20:49;100271.91;;;5.38;100.00
9059;BME280;4564;42.034;25.834;2023-02-23T04:23:16;100276.34;;;5.47;100.00
9059;BME280;4564;42.034;25.834;2023-02-23T04:25:42;100277.13;;;5.58;100.00
9059;BME280;4564;42.034;25.834;2023-02-23T04:28:09;100276.06;;;5.51;100.00
9059;BME280;4564;42.034;25.834;2023-02-23T04:30:36;100283.34;;;5.40;100.00
9059;BME280;4564;42.034;25.834;2023-02-23T04:33:04;100281.66;;;5.57;100.00
9059;BME280;4564;42.034;25.834;2023-02-23T04:35:30;100272.47;;;5.68;100.00
9059;BME280;4564;42.034;25.834;2023-02-23T04:37:57;100279.56;;;5.69;100.00
9059;BME280;4564;42.034;25.834;2023-02-23T04:40:24;100278.59;;;5.78;100.00
9059;BME280;4564;42.034;25.834;2023-02-23T04:42:51;100277.56;;;5.71;100.00
9059;BME280;4564;42.034;25.834;2023-02-23T04:45:17;100279.56;;;5.69;100.00
9059;BME280;4564;42.034;25.834;2023-02-23T04:47:44;100284.19;;;5.59;100.00
9059;BME280;4564;42.034;25.834;2023-02-23T04:50:12;100284.09;;;5.68;100.00
9059;BME280;4564;42.034;25.834;2023-02-23T04:52:39;100283.00;;;5.79;100.00
9059;BME280;4564;42.034;25.834;2023-02-23T04:55:06;100278.59;;;5.78;100.00
9059;BME280;4564;42.034;25.834;2023-02-23T04:57:33;100275.28;;;5.84;100.00
9059;BME280;4564;42.034;25.834;2023-02-23T04:59:59;100278.59;;;5.78;100.00
9059;BME280;4564;42.034;25.834;2023-02-23T05:02:28;100278.94;;;5.75;100.00
9059;BME280;4564;42.034;25.834;2023-02-23T05:04:56;100277.25;;;5.74;100.00
9059;BME280;4564;42.034;25.834;2023-02-23T05:07:24;100275.41;;;5.74;100.00
9059;BME280;4564;42.034;25.834;2023-02-23T05:09:50;100281.78;;;5.73;100.00
9059;BME280;4564;42.034;25.834;2023-02-23T05:12:17;100288.88;;;5.92;100.00
9059;BME280;4564;42.034;25.834;2023-02-23T05:14:44;100293.44;;;6.00;100.00
9059;BME280;4564;42.034;25.834;2023-02-23T05:17:10;100297.91;;;6.09;100.00
9059;BME280;4564;42.034;25.834;2023-02-23T05:19:37;100303.19;;;6.18;100.00
9059;BME280;4564;42.034;25.834;2023-02-23T05:22:04;100310.75;;;6.15;100.00
9059;BME280;4564;42.034;25.834;2023-02-23T05:24:32;100312.88;;;6.11;100.00
9059;BME280;4564;42.034;25.834;2023-02-23T05:26:58;100314.06;;;6.09;100.00
9059;BME280;4564;42.034;25.834;2023-02-23T05:29:25;100320.06;;;6.03;100.00
9059;BME280;4564;42.034;25.834;2023-02-23T05:31:51;100323.84;;;6.10;100.00
9059;BME280;4564;42.034;25.834;2023-02-23T05:34:18;100326.06;;;6.14;100.00
9059;BME280;4564;42.034;25.834;2023-02-23T05:36:45;100330.56;;;6.31;100.00
9059;BME280;4564;42.034;25.834;2023-02-23T05:39:11;100330.22;;;6.35;100.00
9059;BME280;4564;42.034;25.834;2023-02-23T05:41:39;100327.84;;;6.31;100.00
9059;BME280;4564;42.034;25.834;2023-02-23T05:44:06;100330.47;;;6.23;100.00
9059;BME280;4564;42.034;25.834;2023-02-23T05:46:32;100335.13;;;6.13;100.00
9059;BME280;4564;42.034;25.834;2023-02-23T05:49:00;100342.69;;;6.10;100.00
9059;BME280;4564;42.034;25.834;2023-02-23T05:51:27;100345.66;;;6.24;100.00
9059;BME280;4564;42.034;25.834;2023-02-23T05:53:53;100346.38;;;6.09;100.00
9059;BME280;4564;42.034;25.834;2023-02-23T05:56:20;100350.97;;;6.16;100.00
9059;BME280;4564;42.034;25.834;2023-02-23T05:58:49;100359.66;;;6.28;100.00
9059;BME280;4564;42.034;25.834;2023-02-23T06:01:15;100365.09;;;6.36;100.00
9059;BME280;4564;42.034;25.834;2023-02-23T06:03:42;100367.06;;;6.52;100.00
9059;BME280;4564;42.034;25.834;2023-02-23T06:06:09;100374.16;;;6.61;100.00
9059;BME280;4564;42.034;25.834;2023-02-23T06:08:36;100370.47;;;6.62;100.00
9059;BME280;4564;42.034;25.834;2023-02-23T06:11:03;100377.28;;;6.74;100.00
9059;BME280;4564;42.034;25.834;2023-02-23T06:13:30;100381.00;;;6.81;100.00
9059;BME280;4564;42.034;25.834;2023-02-23T06:15:58;100388.47;;;6.87;100.00
9059;BME280;4564;42.034;25.834;2023-02-23T06:18:25;100389.81;;;6.83;100.00
9059;BME280;4564;42.034;25.834;2023-02-23T06:20:52;100382.50;;;6.75;100.00
9059;BME280;4564;42.034;25.834;2023-02-23T06:23:19;100382.47;;;6.67;100.00
9059;BME280;4564;42.034;25.834;2023-02-23T06:25:46;100380.94;;;6.65;100.00
9059;BME280;4564;42.034;25.834;2023-02-23T06:28:12;100390.88;;;6.64;100.00
9059;BME280;4564;42.034;25.834;2023-02-23T06:30:39;100382.91;;;6.55;100.00
9059;BME280;4564;42.034;25.834;2023-02-23T06:33:07;100396.38;;;6.55;100.00
9059;BME280;4564;42.034;25.834;2023-02-23T06:35:34;100391.81;;;6.55;100.00
9059;BME280;4564;42.034;25.834;2023-02-23T06:38:01;100398.91;;;6.56;100.00
9059;BME280;4564;42.034;25.834;2023-02-23T06:40:28;100398.13;;;6.64;100.00
9059;BME280;4564;42.034;25.834;2023-02-23T06:42:54;100394.13;;;6.76;100.00
9059;BME280;4564;42.034;25.834;2023-02-23T06:45:21;100402.19;;;6.68;100.00
9059;BME280;4564;42.034;25.834;2023-02-23T06:47:48;100402.72;;;6.71;100.00
9059;BME280;4564;42.034;25.834;2023-02-23T06:50:16;100403.41;;;6.73;100.00
9059;BME280;4564;42.034;25.834;2023-02-23T06:52:43;100407.97;;;6.73;100.00
9059;BME280;4564;42.034;25.834;2023-02-23T06:55:09;100402.50;;;6.91;100.00
9059;BME280;4564;42.034;25.834;2023-02-23T06:57:37;100399.41;;;6.86;100.00
9059;BME280;4564;42.034;25.834;2023-02-23T07:00:04;100402.50;;;6.99;100.00
9059;BME280;4564;42.034;25.834;2023-02-23T07:02:31;100412.63;;;6.97;100.00
9059;BME280;4564;42.034;25.834;2023-02-23T07:04:59;100400.25;;;6.86;100.00
9059;BME280;4564;42.034;25.834;2023-02-23T07:07:27;100416.34;;;6.96;100.00
9059;BME280;4564;42.034;25.834;2023-02-23T07:09:53;100416.13;;;6.89;100.00
9059;BME280;4564;42.034;25.834;2023-02-23T07:12:20;100412.59;;;6.89;100.00
9059;BME280;4564;42.034;25.834;2023-02-23T07:14:47;100428.97;;;6.95;100.00
9059;BME280;4564;42.034;25.834;2023-02-23T07:17:13;100433.13;;;7.15;100.00
9059;BME280;4564;42.034;25.834;2023-02-23T07:19:42;100431.78;;;7.20;100.00
9059;BME280;4564;42.034;25.834;2023-02-23T07:22:08;100426.75;;;7.25;100.00
9059;BME280;4564;42.034;25.834;2023-02-23T07:24:37;100427.13;;;7.38;100.00
9059;BME280;4564;42.034;25.834;2023-02-23T07:27:04;100436.44;;;7.51;100.00
9059;BME280;4564;42.034;25.834;2023-02-23T07:29:30;100435.28;;;7.62;100.00
9059;BME280;4564;42.034;25.834;2023-02-23T07:31:57;100433.59;;;7.53;100.00
9059;BME280;4564;42.034;25.834;2023-02-23T07:34:24;100431.75;;;7.53;100.00
9059;BME280;4564;42.034;25.834;2023-02-23T07:36:50;100436.66;;;7.58;100.00
9059;BME280;4564;42.034;25.834;2023-02-23T07:39:17;100436.94;;;7.39;100.00
9059;BME280;4564;42.034;25.834;2023-02-23T07:41:45;100435.91;;;7.40;100.00
9059;BME280;4564;42.034;25.834;2023-02-23T07:44:12;100438.66;;;7.56;100.00
9059;BME280;4564;42.034;25.834;2023-02-23T07:46:39;100435.34;;;7.78;100.00
9059;BME280;4564;42.034;25.834;2023-02-23T07:49:06;100433.50;;;7.87;100.00
9059;BME280;4564;42.034;25.834;2023-02-23T07:51:32;100441.97;;;8.00;100.00
9059;BME280;4564;42.034;25.834;2023-02-23T07:54:00;100443.81;;;7.99;100.00
9059;BME280;4564;42.034;25.834;2023-02-23T07:56:27;100440.94;;;8.01;99.65
9059;BME280;4564;42.034;25.834;2023-02-23T07:58:55;100452.09;;;7.98;99.62
9059;BME280;4564;42.034;25.834;2023-02-23T08:01:22;100445.03;;;8.13;100.00
9059;BME280;4564;42.034;25.834;2023-02-23T08:03:48;100453.28;;;8.12;100.00
9059;BME280;4564;42.034;25.834;2023-02-23T08:06:15;100449.75;;;8.19;100.00
9059;BME280;4564;42.034;25.834;2023-02-23T08:08:42;100448.94;;;8.35;99.53
9059;BME280;4564;42.034;25.834;2023-02-23T08:11:09;100444.69;;;8.49;99.50
9059;BME280;4564;42.034;25.834;2023-02-23T08:13:36;100447.25;;;8.58;98.24
9059;BME280;4564;42.034;25.834;2023-02-23T08:16:04;100455.16;;;8.76;97.66
9059;BME280;4564;42.034;25.834;2023-02-23T08:18:31;100450.25;;;8.71;98.33
9059;BME280;4564;42.034;25.834;2023-02-23T08:20:58;100447.00;;;8.92;97.78
9059;BME280;4564;42.034;25.834;2023-02-23T08:23:25;100441.25;;;8.95;96.75
9059;BME280;4564;42.034;25.834;2023-02-23T08:25:52;100448.44;;;9.19;95.59
9059;BME280;4564;42.034;25.834;2023-02-23T08:28:19;100449.22;;;9.36;95.14
9059;BME280;4564;42.034;25.834;2023-02-23T08:30:45;100451.59;;;9.39;94.51
9059;BME280;4564;42.034;25.834;2023-02-23T08:33:13;100456.50;;;9.43;93.61
9059;BME280;4564;42.034;25.834;2023-02-23T08:35:40;100458.03;;;9.38;94.94
9059;BME280;4564;42.034;25.834;2023-02-23T08:38:07;100460.53;;;9.47;94.27
9059;BME280;4564;42.034;25.834;2023-02-23T08:40:33;100463.91;;;9.49;94.23
9059;BME280;4564;42.034;25.834;2023-02-23T08:43:00;100466.88;;;9.62;93.77
9059;BME280;4564;42.034;25.834;2023-02-23T08:45:27;100469.19;;;9.74;92.78
9059;BME280;4564;42.034;25.834;2023-02-23T08:47:54;100469.13;;;9.59;92.84
9059;BME280;4564;42.034;25.834;2023-02-23T08:50:22;100461.22;;;9.80;92.85
9059;BME280;4564;42.034;25.834;2023-02-23T08:52:48;100463.94;;;9.72;92.59
9059;BME280;4564;42.034;25.834;2023-02-23T08:55:15;100469.72;;;9.69;93.33
9059;BME280;4564;42.034;25.834;2023-02-23T08:57:42;100465.47;;;9.75;93.35
9059;BME280;4564;42.034;25.834;2023-02-23T09:00:09;100469.72;;;9.69;92.90
9059;BME280;4564;42.034;25.834;2023-02-23T09:02:38;100476.94;;;9.85;92.24
9059;BME280;4564;42.034;25.834;2023-02-23T09:05:05;100467.88;;;9.69;93.43
9059;BME280;4564;42.034;25.834;2023-02-23T09:07:34;100470.59;;;9.61;93.80
9059;BME280;4564;42.034;25.834;2023-02-23T09:10:00;100472.19;;;9.87;92.44
9059;BME280;4564;42.034;25.834;2023-02-23T09:12:27;100467.66;;;9.79;93.48
9059;BME280;4564;42.034;25.834;2023-02-23T09:14:54;100464.09;;;9.79;92.76
9059;BME280;4564;42.034;25.834;2023-02-23T09:17:20;100476.22;;;9.91;92.64
9059;BME280;4564;42.034;25.834;2023-02-23T09:19:48;100468.75;;;10.16;92.01
9059;BME280;4564;42.034;25.834;2023-02-23T09:22:14;100478.69;;;10.31;90.86
9059;BME280;4564;42.034;25.834;2023-02-23T09:24:44;100474.22;;;10.38;90.77
9059;BME280;4564;42.034;25.834;2023-02-23T09:27:10;100473.50;;;10.44;89.72
9059;BME280;4564;42.034;25.834;2023-02-23T09:29:39;100475.41;;;10.59;89.53
9059;BME280;4564;42.034;25.834;2023-02-23T09:32:06;100480.06;;;10.87;88.26
9059;BME280;4564;42.034;25.834;2023-02-23T09:34:33;100475.63;;;10.72;88.39
9059;BME280;4564;42.034;25.834;2023-02-23T09:37:00;100476.81;;;10.55;89.68
9059;BME280;4564;42.034;25.834;2023-02-23T09:39:27;100476.16;;;10.52;89.71
9059;BME280;4564;42.034;25.834;2023-02-23T09:42:04;100476.81;;;10.55;89.74
9059;BME280;4564;42.034;25.834;2023-02-23T09:44:38;100470.50;;;10.91;88.55
9059;BME280;4564;42.034;25.834;2023-02-23T09:47:20;100467.06;;;10.83;88.49
9059;BME280;4564;42.034;25.834;2023-02-23T09:49:52;100463.63;;;10.51;89.67
9059;BME280;4564;42.034;25.834;2023-02-23T09:52:21;100458.97;;;10.37;91.36
9059;BME280;4564;42.034;25.834;2023-02-23T09:54:49;100463.66;;;10.43;91.57
9059;BME280;4564;42.034;25.834;2023-02-23T09:57:18;100458.53;;;10.48;90.83
9059;BME280;4564;42.034;25.834;2023-02-23T09:59:46;100459.56;;;10.47;91.32
9059;BME280;4564;42.034;25.834;2023-02-23T10:02:16;100468.41;;;10.64;91.24
9059;BME280;4564;42.034;25.834;2023-02-23T10:04:45;100467.19;;;10.67;90.60
9059;BME280;4564;42.034;25.834;2023-02-23T10:07:14;100454.66;;;10.66;90.83
9059;BME280;4564;42.034;25.834;2023-02-23T10:09:46;100445.16;;;10.84;90.18
9059;BME280;4564;42.034;25.834;2023-02-23T10:12:18;100448.72;;;10.85;90.26
9059;BME280;4564;42.034;25.834;2023-02-23T10:14:55;100454.50;;;10.82;89.87
9059;BME280;4564;42.034;25.834;2023-02-23T10:17:28;100450.38;;;10.86;89.48
9059;BME280;4564;42.034;25.834;2023-02-23T10:19:59;100451.03;;;10.88;90.02
9059;BME280;4564;42.034;25.834;2023-02-23T10:22:30;100443.94;;;11.02;89.60
9059;BME280;4564;42.034;25.834;2023-02-23T10:24:59;100444.69;;;10.96;90.55
9059;BME280;4564;42.034;25.834;2023-02-23T10:27:31;100441.25;;;11.16;89.43
9059;BME280;4564;42.034;25.834;2023-02-23T10:30:03;100447.84;;;11.28;88.51
9059;BME280;4564;42.034;25.834;2023-02-23T10:32:40;100435.25;;;11.06;88.98
9059;BME280;4564;42.034;25.834;2023-02-23T10:35:08;100442.53;;;11.20;89.31
9059;BME280;4564;42.034;25.834;2023-02-23T10:37:36;100454.91;;;11.38;88.83
9059;BME280;4564;42.034;25.834;2023-02-23T10:40:03;100446.81;;;11.59;87.93
9059;BME280;4564;42.034;25.834;2023-02-23T10:42:32;100441.84;;;11.62;87.19
9059;BME280;4564;42.034;25.834;2023-02-23T10:44:59;100447.28;;;11.62;86.95
9059;BME280;4564;42.034;25.834;2023-02-23T10:47:26;100440.28;;;11.39;88.32
9059;BME280;4564;42.034;25.834;2023-02-23T10:49:55;100440.09;;;11.55;87.58
9059;BME280;4564;42.034;25.834;2023-02-23T10:52:23;100438.47;;;11.75;87.28
9059;BME280;4564;42.034;25.834;2023-02-23T10:54:53;100438.34;;;11.83;86.79
9059;BME280;4564;42.034;25.834;2023-02-23T10:57:21;100431.81;;;11.63;87.23
9059;BME280;4564;42.034;25.834;2023-02-23T11:00:00;100428.78;;;11.87;86.96
9059;BME280;4564;42.034;25.834;2023-02-23T11:02:27;100430.38;;;11.67;87.34
9059;BME280;4564;42.034;25.834;2023-02-23T11:04:56;100431.00;;;11.48;88.70
9059;BME280;4564;42.034;25.834;2023-02-23T11:07:23;100434.47;;;11.42;87.98
9059;BME280;4564;42.034;25.834;2023-02-23T11:09:54;100426.22;;;11.50;88.68
9059;BME280;4564;42.034;25.834;2023-02-23T11:12:21;100430.13;;;11.62;88.20
9059;BME280;4564;42.034;25.834;2023-02-23T11:14:49;100421.06;;;11.55;87.70
9059;BME280;4564;42.034;25.834;2023-02-23T11:17:25;100415.50;;;11.63;88.68
9059;BME280;4564;42.034;25.834;2023-02-23T11:19:56;100423.44;;;11.79;87.16
9059;BME280;4564;42.034;25.834;2023-02-23T11:22:23;100427.41;;;11.76;87.65
9059;BME280;4564;42.034;25.834;2023-02-23T11:24:51;100418.97;;;11.57;88.23
9059;BME280;4564;42.034;25.834;2023-02-23T11:27:20;100418.44;;;11.47;88.28
9059;BME280;4564;42.034;25.834;2023-02-23T11:29:48;100428.63;;;11.45;88.73
9059;BME280;4564;42.034;25.834;2023-02-23T11:32:19;100420.78;;;11.50;88.90
9059;BME280;4564;42.034;25.834;2023-02-23T11:34:47;100418.69;;;11.52;88.93
9059;BME280;4564;42.034;25.834;2023-02-23T11:37:35;100413.28;;;11.52;89.15
9059;BME280;4564;42.034;25.834;2023-02-23T11:40:16;100412.72;;;11.42;89.87
9059;BME280;4564;42.034;25.834;2023-02-23T11:42:49;100403.06;;;11.54;89.82
9059;BME280;4564;42.034;25.834;2023-02-23T11:45:18;100402.84;;;11.70;88.57
9059;BME280;4564;42.034;25.834;2023-02-23T11:47:46;100406.50;;;11.62;88.83
9059;BME280;4564;42.034;25.834;2023-02-23T11:50:19;100412.50;;;11.58;88.98
9059;BME280;4564;42.034;25.834;2023-02-23T11:52:48;100414.56;;;11.56;89.58
9059;BME280;4564;42.034;25.834;2023-02-23T11:55:17;100419.28;;;11.47;90.16
9059;BME280;4564;42.034;25.834;2023-02-23T11:57:44;100419.28;;;11.47;90.31
9059;BME280;4564;42.034;25.834;2023-02-23T12:00:20;100416.22;;;11.21;91.24
9059;BME280;4564;42.034;25.834;2023-02-23T12:02:48;100411.91;;;11.26;91.67
9059;BME280;4564;42.034;25.834;2023-02-23T12:05:19;100416.03;;;11.22;91.85
9059;BME280;4564;42.034;25.834;2023-02-23T12:07:52;100413.59;;;11.27;92.10
9059;BME280;4564;42.034;25.834;2023-02-23T12:10:21;100412.91;;;11.55;91.16
9059;BME280;4564;42.034;25.834;2023-02-23T12:12:54;100420.16;;;11.69;90.36
9059;BME280;4564;42.034;25.834;2023-02-23T12:15:25;100411.91;;;11.77;89.80
9059;BME280;4564;42.034;25.834;2023-02-23T12:17:54;100412.47;;;11.87;89.77
9059;BME280;4564;42.034;25.834;2023-02-23T12:20:24;100405.44;;;11.78;89.15
9059;BME280;4564;42.034;25.834;2023-02-23T12:22:54;100407.31;;;11.77;89.32
9059;BME280;4564;42.034;25.834;2023-02-23T12:25:24;100406.38;;;11.85;89.41
9059;BME280;4564;42.034;25.834;2023-02-23T12:27:53;100398.91;;;11.94;89.34
9059;BME280;4564;42.034;25.834;2023-02-23T12:30:25;100402.03;;;11.91;88.56
9059;BME280;4564;42.034;25.834;2023-02-23T12:32:54;100410.78;;;11.86;88.35
9059;BME280;4564;42.034;25.834;2023-02-23T12:35:22;100416.59;;;11.83;89.03
9059;BME280;4564;42.034;25.834;2023-02-23T12:37:53;100411.84;;;11.70;89.42
9059;BME280;4564;42.034;25.834;2023-02-23T12:40:22;100419.03;;;11.78;88.99
9059;BME280;4564;42.034;25.834;2023-02-23T12:42:53;100419.88;;;11.78;88.85
9059;BME280;4564;42.034;25.834;2023-02-23T12:45:23;100414.28;;;11.80;89.42
9059;BME280;4564;42.034;25.834;2023-02-23T12:47:52;100405.34;;;11.86;89.47
9059;BME280;4564;42.034;25.834;2023-02-23T12:50:23;100415.38;;;11.86;89.99
9059;BME280;4564;42.034;25.834;2023-02-23T12:52:55;100412.84;;;12.05;88.42
9059;BME280;4564;42.034;25.834;2023-02-23T12:55:26;100415.91;;;11.96;88.38
9059;BME280;4564;42.034;25.834;2023-02-23T12:57:56;100409.16;;;11.92;89.27
9059;BME280;4564;42.034;25.834;2023-02-23T13:00:34;100422.44;;;12.01;88.85
9059;BME280;4564;42.034;25.834;2023-02-23T13:03:16;100416.59;;;12.04;88.28
9059;BME280;4564;42.034;25.834;2023-02-23T13:05:49;100420.66;;;12.08;88.36
9059;BME280;4564;42.034;25.834;2023-02-23T13:08:21;100419.59;;;12.09;88.05
9059;BME280;4564;42.034;25.834;2023-02-23T13:10:53;100419.91;;;12.21;86.87
9059;BME280;4564;42.034;25.834;2023-02-23T13:13:26;100421.00;;;12.27;87.38
9059;BME280;4564;42.034;25.834;2023-02-23T13:15:58;100413.75;;;12.34;86.66
9059;BME280;4564;42.034;25.834;2023-02-23T13:18:26;100408.63;;;12.45;85.53
9059;BME280;4564;42.034;25.834;2023-02-23T13:20:54;100414.31;;;12.50;85.69
9059;BME280;4564;42.034;25.834;2023-02-23T13:23:29;100409.66;;;12.44;85.92